createdAt,value
2022-11-01T00:01:57.973Z,98839.34
2022-11-01T00:04:25.260Z,98841.75
2022-11-01T00:06:52.095Z,98837.13
2022-11-01T00:09:19.123Z,98831.81
2022-11-01T00:11:46.195Z,98826.78
2022-11-01T00:14:17.582Z,98828.59
2022-11-01T00:16:44.507Z,98832.09
2022-11-01T00:19:12.117Z,98829.75
2022-11-01T00:21:38.684Z,98812.06
2022-11-01T00:24:05.993Z,98813.03
2022-11-01T00:26:32.754Z,98807.59
2022-11-01T00:28:59.465Z,98809.41
2022-11-01T00:31:26.478Z,98808.56
2022-11-01T00:33:53.193Z,98808.56
2022-11-01T00:36:20.218Z,98817.25
2022-11-01T00:38:51.222Z,98818.22
2022-11-01T00:41:19.514Z,98800.47
2022-11-01T00:43:46.539Z,98787.63
2022-11-01T00:46:13.149Z,98797.41
2022-11-01T00:48:39.798Z,98812.63
2022-11-01T00:51:06.416Z,98799.06
2022-11-01T00:53:33.026Z,98810.63
2022-11-01T00:56:04.187Z,98814.84
2022-11-01T00:58:30.925Z,98804.78
2022-11-01T01:00:57.788Z,98791.25
2022-11-01T01:03:24.716Z,98788.72
2022-11-01T01:05:53.083Z,98784.13
2022-11-01T01:08:20.440Z,98792.34
2022-11-01T01:10:47.384Z,98778.38
2022-11-01T01:13:13.988Z,98770.28
2022-11-01T01:15:40.930Z,98773.91
2022-11-01T01:18:08.006Z,98783.44
2022-11-01T01:20:35.123Z,98780.31
2022-11-01T01:23:01.698Z,98776.97
2022-11-01T01:25:28.838Z,98778.63
2022-11-01T01:27:56.500Z,98784.09
2022-11-01T01:30:23.256Z,98786.88
2022-11-01T01:32:49.888Z,98788.97
2022-11-01T01:35:16.658Z,98779.88
2022-11-01T01:37:43.209Z,98780.59
2022-11-01T01:40:10.335Z,98769.28
2022-11-01T01:42:39.601Z,98777.25
2022-11-01T01:45:35.522Z,98773.06
2022-11-01T01:48:31.456Z,98768.84
2022-11-01T01:51:02.644Z,98772.47
2022-11-01T01:53:42.995Z,98776.09
2022-11-01T01:56:14.561Z,98774.41
2022-11-01T01:58:47.257Z,98769.69
2022-11-01T02:01:14.463Z,98764.25
2022-11-01T02:03:42.976Z,98759.09
2022-11-01T02:06:21.631Z,98738.69
2022-11-01T02:08:53.613Z,98735.34
2022-11-01T02:11:21.689Z,98726.66
2022-11-01T02:13:48.613Z,98732.97
2022-11-01T02:16:31.626Z,98732.97
2022-11-01T02:19:25.206Z,98733.94
2022-11-01T02:22:14.818Z,98742.88
2022-11-01T09:34:49.185Z,99002.22
2022-11-01T09:37:16.666Z,99006.94
2022-11-01T09:39:43.304Z,99004.00
2022-11-01T09:42:18.819Z,99010.13
2022-11-01T09:44:49.999Z,99017.19
2022-11-01T09:47:21.448Z,99015.88
2022-11-01T09:49:51.240Z,99008.91
2022-11-01T09:52:23.725Z,99012.16
2022-11-01T09:54:51.064Z,99021.00
2022-11-01T09:57:42.817Z,99014.41
2022-11-01T10:00:18.591Z,99011.50
2022-11-01T10:03:03.543Z,99010.50
2022-11-01T10:05:45.283Z,99014.59
2022-11-01T10:08:33.304Z,99014.69
2022-11-01T10:10:59.989Z,99004.00
2022-11-01T10:13:31.380Z,99016.59
2022-11-01T10:16:24.005Z,99017.56
2022-11-01T10:18:56.650Z,99010.69
2022-11-01T10:21:27.351Z,99015.41
2022-11-01T10:23:59.161Z,99007.41
2022-11-01T10:26:27.890Z,99010.56
2022-11-01T10:29:13.965Z,99018.41
2022-11-01T10:31:46.349Z,99034.84
2022-11-01T10:34:24.521Z,99033.50
2022-11-01T10:36:51.737Z,99031.50
2022-11-01T10:39:53.228Z,99032.88
2022-11-01T10:42:15.947Z,99035.88
2022-11-01T10:44:55.382Z,99041.53
2022-11-01T10:47:24.961Z,99038.88
2022-11-01T10:50:06.955Z,99045.88
2022-11-01T10:53:00.166Z,99037.53
2022-11-01T10:55:43.339Z,99039.22
2022-11-01T10:58:23.121Z,99031.03
2022-11-01T11:00:50.539Z,99032.91
2022-11-01T11:03:22.981Z,99036.94
2022-11-01T11:05:51.920Z,99033.44
2022-11-01T11:08:22.447Z,99031.63
2022-11-01T11:10:49.510Z,99031.63
2022-11-01T11:13:21.960Z,99036.13
2022-11-01T11:16:14.125Z,99037.63
2022-11-01T11:18:42.517Z,99037.28
2022-11-01T11:21:12.405Z,99034.56
2022-11-01T11:23:46.838Z,99040.44
2022-11-01T11:26:17.548Z,99025.88
2022-11-01T11:28:56.382Z,99028.88
2022-11-01T11:31:31.853Z,99034.56
2022-11-01T11:34:04.896Z,99027.25
2022-11-01T11:36:38.197Z,99027.59
2022-11-01T11:39:05.705Z,99023.75
2022-11-01T11:41:39.201Z,99026.94
2022-11-01T11:44:34.460Z,99035.16
2022-11-01T11:47:03.144Z,99032.97
2022-11-01T11:49:29.769Z,99031.34
2022-11-01T11:51:56.424Z,99026.63
2022-11-01T11:54:37.624Z,99025.63
2022-11-01T11:57:19.394Z,99025.13
2022-11-01T11:59:50.838Z,99036.66
2022-11-01T12:02:35.812Z,99029.16
2022-11-01T12:05:22.599Z,99030.13
2022-11-01T12:07:58.385Z,99044.66
2022-11-01T12:10:37.624Z,99033.97
2022-11-01T12:13:21.558Z,99032.16
2022-11-01T12:15:48.211Z,99040.00
2022-11-01T12:18:17.514Z,99035.47
2022-11-01T12:20:48.488Z,99029.75
2022-11-01T12:23:31.726Z,99030.75
2022-11-01T12:26:00.687Z,99040.97
2022-11-01T12:28:36.001Z,99033.19
2022-11-01T12:31:12.378Z,99032.78
2022-11-01T12:33:49.297Z,99032.72
2022-11-01T12:36:18.497Z,99043.94
2022-11-01T12:38:51.221Z,99032.56
2022-11-01T12:41:22.724Z,99036.63
2022-11-01T12:43:54.024Z,99048.59
2022-11-01T12:46:37.593Z,99044.47
2022-11-01T12:49:22.174Z,99060.00
2022-11-01T12:51:53.955Z,99053.59
2022-11-01T12:54:25.938Z,99052.97
2022-11-01T12:56:54.899Z,99051.88
2022-11-01T12:59:27.577Z,99047.53
2022-11-01T13:02:15.925Z,99040.72
2022-11-01T13:04:57.404Z,99041.59
2022-11-01T13:08:02.674Z,99050.09
2022-11-01T13:10:35.434Z,99045.91
2022-11-01T13:13:14.391Z,99050.47
2022-11-01T13:15:54.068Z,99046.06
2022-11-01T13:18:44.584Z,99044.09
2022-11-01T13:21:29.939Z,99039.44
2022-11-01T13:24:15.155Z,99045.97
2022-11-01T13:26:50.012Z,99042.97
2022-11-01T13:29:23.126Z,99053.56
2022-11-01T13:32:02.100Z,99050.59
2022-11-01T13:34:39.526Z,99059.63
2022-11-01T13:37:30.859Z,99049.88
2022-11-01T13:40:41.166Z,99052.91
2022-11-01T13:43:10.669Z,99052.88
2022-11-01T13:46:10.577Z,99062.94
2022-11-01T13:48:55.839Z,99064.31
2022-11-01T13:51:58.171Z,99065.38
2022-11-01T13:54:36.305Z,99059.69
2022-11-01T13:57:12.365Z,99059.19
2022-11-01T13:59:39.646Z,99057.03
2022-11-01T14:02:28.236Z,99064.38
2022-11-01T14:05:16.020Z,99061.00
2022-11-01T14:07:45.568Z,99069.75
2022-11-01T14:10:17.947Z,99074.16
2022-11-01T14:12:49.134Z,99072.44
2022-11-01T14:15:25.402Z,99072.16
2022-11-01T14:17:57.943Z,99069.66
2022-11-01T14:20:33.511Z,99068.00
2022-11-01T14:23:28.932Z,99073.00
2022-11-01T14:26:20.638Z,99072.53
2022-11-01T14:28:51.629Z,99087.25
2022-11-01T14:31:23.916Z,99081.88
2022-11-01T14:33:54.769Z,99082.72
2022-11-01T14:36:27.606Z,99075.78
2022-11-01T14:39:01.137Z,99084.13
2022-11-01T14:41:30.415Z,99077.41
2022-11-01T14:46:41.952Z,99081.63
2022-11-01T14:49:38.227Z,99091.50
2022-11-01T14:52:06.956Z,99089.97
2022-11-01T14:54:52.288Z,99098.16
2022-11-01T14:57:36.959Z,99101.81
2022-11-01T15:00:32.926Z,99099.81
2022-11-01T15:03:01.100Z,99107.16
2022-11-01T15:05:28.690Z,99108.34
2022-11-01T15:07:57.227Z,99113.56
2022-11-01T15:10:24.206Z,99101.31
2022-11-01T15:13:02.324Z,99100.97
2022-11-01T15:15:35.424Z,99110.16
2022-11-01T15:18:14.515Z,99110.78
2022-11-01T15:20:47.207Z,99116.44
2022-11-01T15:23:37.220Z,99123.06
2022-11-01T15:26:13.117Z,99125.19
2022-11-01T15:28:45.585Z,99124.53
2022-11-01T15:31:12.631Z,99130.53
2022-11-01T15:33:39.450Z,99130.50
2022-11-01T15:36:18.570Z,99143.84
2022-11-01T15:38:54.024Z,99136.03
2022-11-01T15:41:40.942Z,99134.34
2022-11-01T15:44:20.000Z,99141.75
2022-11-01T15:46:47.875Z,99140.84
2022-11-01T15:49:46.691Z,99133.06
2022-11-01T15:52:30.395Z,99141.69
2022-11-01T15:55:04.186Z,99140.25
2022-11-01T15:57:41.400Z,99139.88
2022-11-01T16:00:18.255Z,99148.66
2022-11-01T16:02:49.909Z,99144.63
2022-11-01T16:05:20.575Z,99153.72
2022-11-01T16:07:47.576Z,99152.50
2022-11-01T16:10:19.391Z,99152.25
2022-11-01T16:12:46.628Z,99158.75
2022-11-01T16:15:29.708Z,99158.13
2022-11-01T16:18:00.024Z,99162.88
2022-11-01T16:20:37.993Z,99170.69
2022-11-01T16:23:06.540Z,99172.66
2022-11-01T16:25:37.149Z,99182.34
2022-11-01T16:28:28.417Z,99173.97
2022-11-01T16:30:56.986Z,99183.88
2022-11-01T16:33:23.549Z,99177.97
2022-11-01T16:35:53.534Z,99185.97
2022-11-01T16:38:35.936Z,99182.88
2022-11-01T16:41:04.614Z,99187.41
2022-11-01T16:43:32.799Z,99191.59
2022-11-01T16:45:59.995Z,99195.25
2022-11-01T16:48:29.457Z,99198.63
2022-11-01T16:50:56.493Z,99213.31
2022-11-01T16:53:32.050Z,99219.91
2022-11-01T16:59:07.657Z,99214.41
2022-11-01T17:01:36.455Z,99216.97
2022-11-01T17:04:04.255Z,99217.94
2022-11-01T17:06:34.749Z,99217.09
2022-11-01T17:09:11.213Z,99232.78
2022-11-01T17:11:37.809Z,99225.88
2022-11-01T17:14:04.397Z,99227.81
2022-11-01T17:16:31.019Z,99233.69
2022-11-01T17:19:00.024Z,99236.34
2022-11-01T17:21:29.345Z,99245.84
2022-11-01T17:23:56.065Z,99242.78
2022-11-01T17:26:23.831Z,99243.59
2022-11-01T17:28:52.565Z,99241.91
2022-11-01T17:31:19.400Z,99241.63
2022-11-01T17:33:46.103Z,99243.84
2022-11-01T17:36:17.133Z,99240.75
2022-11-01T17:38:45.059Z,99242.56
2022-11-01T17:41:18.094Z,99244.31
2022-11-01T17:43:44.782Z,99251.81
2022-11-01T17:46:15.047Z,99255.69
2022-11-01T17:48:41.954Z,99253.44
2022-11-01T17:51:09.092Z,99263.16
2022-11-01T17:53:38.195Z,99267.97
2022-11-01T17:56:05.323Z,99277.59
2022-11-01T17:58:31.987Z,99276.00
2022-11-01T18:00:58.609Z,99287.16
2022-11-01T18:03:26.439Z,99287.75
2022-11-01T18:05:59.712Z,99285.69
2022-11-01T18:08:28.157Z,99288.25
2022-11-01T18:11:01.014Z,99292.03
2022-11-01T18:13:52.966Z,99294.81
2022-11-01T18:16:49.284Z,99289.38
2022-11-01T18:19:39.511Z,99283.47
2022-11-01T18:22:28.764Z,99287.03
2022-11-01T18:25:14.879Z,99287.28
2022-11-01T18:27:41.500Z,99290.31
2022-11-01T18:30:13.960Z,99295.91
2022-11-01T18:32:48.951Z,99297.13
2022-11-01T18:35:19.944Z,99298.34
2022-11-01T18:37:54.990Z,99293.53
2022-11-01T18:40:30.827Z,99290.91
2022-11-01T18:42:57.428Z,99288.47
2022-11-01T18:45:33.070Z,99295.59
2022-11-01T18:48:27.235Z,99288.28
2022-11-01T18:51:04.906Z,99300.84
2022-11-01T18:53:33.579Z,99293.38
2022-11-01T18:56:23.022Z,99300.63
2022-11-01T18:58:50.538Z,99298.00
2022-11-01T19:01:20.016Z,99295.72
2022-11-01T19:04:10.921Z,99303.81
2022-11-01T19:06:37.611Z,99298.72
2022-11-01T19:09:24.556Z,99301.16
2022-11-01T19:11:59.590Z,99297.75
2022-11-01T19:14:27.367Z,99295.38
2022-11-01T19:16:54.381Z,99303.72
2022-11-01T19:19:44.640Z,99306.72
2022-11-01T19:22:41.002Z,99316.38
2022-11-01T19:25:21.620Z,99327.22
2022-11-01T19:27:49.664Z,99325.78
2022-11-01T19:30:29.976Z,99334.72
2022-11-01T19:33:03.462Z,99334.25
2022-11-01T19:35:30.088Z,99341.34
2022-11-01T19:37:56.906Z,99335.09
2022-11-01T19:40:33.544Z,99339.06
2022-11-01T19:43:12.593Z,99331.09
2022-11-01T19:45:49.616Z,99333.50
2022-11-01T19:48:25.281Z,99329.16
2022-11-01T19:50:52.892Z,99335.69
2022-11-01T19:53:34.071Z,99332.66
2022-11-01T19:56:01.852Z,99332.75
2022-11-01T19:58:39.328Z,99333.50
2022-11-01T20:01:08.687Z,99344.03
2022-11-01T20:03:42.996Z,99340.69
2022-11-01T20:06:20.562Z,99343.34
2022-11-01T20:08:50.455Z,99346.94
2022-11-01T20:11:17.783Z,99348.06
2022-11-01T20:13:44.472Z,99353.22
2022-11-01T20:16:11.111Z,99350.06
2022-11-01T20:18:37.721Z,99351.19
2022-11-01T20:21:06.409Z,99352.13
2022-11-01T20:23:33.960Z,99352.38
2022-11-01T20:26:01.475Z,99350.19
2022-11-01T20:28:28.359Z,99351.28
2022-11-01T20:30:56.145Z,99358.50
2022-11-01T20:33:25.782Z,99354.16
2022-11-01T20:35:53.373Z,99360.78
2022-11-01T20:40:47.101Z,99356.59
2022-11-01T20:43:13.735Z,99353.94
2022-11-01T20:45:41.599Z,99350.44
2022-11-01T20:48:08.284Z,99356.22
2022-11-01T20:50:35.609Z,99356.69
2022-11-01T20:53:02.850Z,99354.13
2022-11-01T20:55:29.510Z,99347.38
2022-11-01T20:57:56.321Z,99352.91
2022-11-01T21:00:23.284Z,99358.00
2022-11-01T21:02:51.188Z,99358.75
2022-11-01T21:05:25.146Z,99362.81
2022-11-01T21:08:10.915Z,99352.34
2022-11-01T21:10:40.235Z,99362.81
2022-11-01T21:13:34.010Z,99368.59
2022-11-01T21:16:03.006Z,99371.44
2022-11-01T21:18:35.460Z,99374.56
2022-11-01T21:21:31.812Z,99372.88
2022-11-01T21:23:59.883Z,99367.06
2022-11-01T21:26:31.935Z,99369.97
2022-11-01T21:29:03.449Z,99376.81
2022-11-01T21:31:37.827Z,99377.78
2022-11-01T21:34:26.383Z,99375.47
2022-11-01T21:36:53.290Z,99377.63
2022-11-01T21:39:22.960Z,99374.50
2022-11-01T21:41:57.138Z,99378.31
2022-11-01T21:44:40.563Z,99379.66
2022-11-01T21:47:21.059Z,99377.00
2022-11-01T21:49:47.854Z,99381.19
2022-11-01T21:52:14.940Z,99384.69
2022-11-01T21:54:43.455Z,99378.53
2022-11-01T21:57:11.602Z,99369.41
2022-11-01T21:59:38.933Z,99367.97
2022-11-01T22:02:07.492Z,99371.06
2022-11-01T22:04:34.150Z,99379.22
2022-11-01T22:07:03.085Z,99378.59
2022-11-01T22:09:30.794Z,99372.47
2022-11-01T22:11:57.710Z,99366.72
2022-11-01T22:14:24.481Z,99365.88
2022-11-01T22:16:51.900Z,99368.00
2022-11-01T22:19:18.415Z,99365.72
2022-11-01T22:24:12.642Z,99370.56
2022-11-01T22:26:39.252Z,99368.38
2022-11-01T22:29:06.098Z,99360.41
2022-11-01T22:31:32.687Z,99369.53
2022-11-01T22:33:59.268Z,99366.63
2022-11-01T22:36:30.375Z,99361.75
2022-11-01T22:38:59.121Z,99362.72
2022-11-01T22:41:33.242Z,99362.19
2022-11-01T22:44:05.598Z,99364.63
2022-11-01T22:46:34.788Z,99360.50
2022-11-01T22:49:09.812Z,99352.56
2022-11-01T22:51:43.328Z,99361.69
2022-11-01T22:54:29.530Z,99364.06
2022-11-01T22:57:09.676Z,99362.06
2022-11-01T22:59:45.878Z,99362.53
2022-11-01T23:02:32.122Z,99375.13
2022-11-01T23:05:02.064Z,99370.81
2022-11-01T23:07:33.532Z,99365.72
2022-11-01T23:10:07.923Z,99366.69
2022-11-01T23:12:55.159Z,99360.97
2022-11-01T23:15:28.750Z,99360.97
2022-11-01T23:18:13.195Z,99359.03
2022-11-01T23:20:41.188Z,99358.94
2022-11-01T23:23:18.412Z,99366.41
2022-11-01T23:25:45.367Z,99364.72
2022-11-01T23:28:13.543Z,99362.81
2022-11-01T23:30:44.217Z,99359.66
2022-11-01T23:33:17.091Z,99359.03
2022-11-01T23:35:52.119Z,99360.50
2022-11-01T23:38:22.952Z,99359.38
2022-11-01T23:40:52.761Z,99353.13
2022-11-01T23:43:34.151Z,99364.91
2022-11-01T23:46:01.608Z,99359.13
2022-11-01T23:48:28.653Z,99358.38
2022-11-01T23:50:56.222Z,99358.81
2022-11-01T23:53:35.568Z,99362.41
2022-11-01T23:56:05.887Z,99367.91
2022-11-01T23:58:34.397Z,99357.34
